sensor_id;sensor_type;location;lat;lon;timestamp;P1;durP1;ratioP1;P2;durP2;ratioP2
8568;SDS011;4322;51.104;-4.162;2023-04-29T00:00:06;4.07;;;3.90;;
8568;SDS011;4322;51.104;-4.162;2023-04-29T00:02:36;4.37;;;4.17;;
8568;SDS011;4322;51.104;-4.162;2023-04-29T00:05:04;3.83;;;3.73;;
8568;SDS011;4322;51.104;-4.162;2023-04-29T00:07:33;3.90;;;3.80;;
8568;SDS011;4322;51.104;-4.162;2023-04-29T00:10:01;3.80;;;3.70;;
8568;SDS011;4322;51.104;-4.162;2023-04-29T00:12:29;3.73;;;3.63;;
8568;SDS011;4322;51.104;-4.162;2023-04-29T00:14:58;4.40;;;4.20;;
8568;SDS011;4322;51.104;-4.162;2023-04-29T00:17:28;3.87;;;3.77;;
8568;SDS011;4322;51.104;-4.162;2023-04-29T00:19:57;3.77;;;3.67;;
8568;SDS011;4322;51.104;-4.162;2023-04-29T00:22:25;3.77;;;3.67;;
8568;SDS011;4322;51.104;-4.162;2023-04-29T00:24:53;3.70;;;3.60;;
8568;SDS011;4322;51.104;-4.162;2023-04-29T00:27:21;3.60;;;3.50;;
8568;SDS011;4322;51.104;-4.162;2023-04-29T00:29:48;3.60;;;3.50;;
8568;SDS011;4322;51.104;-4.162;2023-04-29T00:32:16;3.20;;;3.10;;
8568;SDS011;4322;51.104;-4.162;2023-04-29T00:34:44;3.80;;;3.70;;
8568;SDS011;4322;51.104;-4.162;2023-04-29T00:37:13;3.60;;;3.50;;
8568;SDS011;4322;51.104;-4.162;2023-04-29T00:39:41;3.90;;;3.80;;
8568;SDS011;4322;51.104;-4.162;2023-04-29T00:42:09;3.57;;;3.47;;
8568;SDS011;4322;51.104;-4.162;2023-04-29T00:44:37;3.83;;;3.73;;
8568;SDS011;4322;51.104;-4.162;2023-04-29T00:47:05;4.10;;;3.90;;
8568;SDS011;4322;51.104;-4.162;2023-04-29T00:49:36;3.80;;;3.70;;
8568;SDS011;4322;51.104;-4.162;2023-04-29T00:52:04;3.60;;;3.50;;
8568;SDS011;4322;51.104;-4.162;2023-04-29T00:54:35;3.77;;;3.67;;
8568;SDS011;4322;51.104;-4.162;2023-04-29T00:57:03;3.97;;;3.83;;
8568;SDS011;4322;51.104;-4.162;2023-04-29T00:59:32;3.20;;;3.10;;
8568;SDS011;4322;51.104;-4.162;2023-04-29T01:02:00;3.83;;;3.73;;
8568;SDS011;4322;51.104;-4.162;2023-04-29T01:04:29;3.67;;;3.57;;
8568;SDS011;4322;51.104;-4.162;2023-04-29T01:06:59;3.10;;;3.00;;
8568;SDS011;4322;51.104;-4.162;2023-04-29T01:09:31;3.67;;;3.57;;
8568;SDS011;4322;51.104;-4.162;2023-04-29T01:12:05;3.47;;;3.37;;
8568;SDS011;4322;51.104;-4.162;2023-04-29T01:14:34;3.33;;;3.23;;
8568;SDS011;4322;51.104;-4.162;2023-04-29T01:17:04;3.70;;;3.60;;
8568;SDS011;4322;51.104;-4.162;2023-04-29T01:19:38;3.50;;;3.40;;
8568;SDS011;4322;51.104;-4.162;2023-04-29T01:22:07;3.60;;;3.50;;
8568;SDS011;4322;51.104;-4.162;2023-04-29T01:24:36;4.13;;;3.93;;
8568;SDS011;4322;51.104;-4.162;2023-04-29T01:27:07;3.80;;;3.70;;
8568;SDS011;4322;51.104;-4.162;2023-04-29T01:29:39;3.63;;;3.53;;
8568;SDS011;4322;51.104;-4.162;2023-04-29T01:32:12;3.80;;;3.70;;
8568;SDS011;4322;51.104;-4.162;2023-04-29T01:34:41;4.13;;;3.93;;
8568;SDS011;4322;51.104;-4.162;2023-04-29T01:37:13;4.10;;;3.90;;
8568;SDS011;4322;51.104;-4.162;2023-04-29T01:39:47;3.80;;;3.70;;
8568;SDS011;4322;51.104;-4.162;2023-04-29T01:42:21;3.80;;;3.70;;
8568;SDS011;4322;51.104;-4.162;2023-04-29T01:44:52;3.93;;;3.80;;
8568;SDS011;4322;51.104;-4.162;2023-04-29T01:47:21;4.10;;;3.90;;
8568;SDS011;4322;51.104;-4.162;2023-04-29T01:49:49;3.50;;;3.40;;
8568;SDS011;4322;51.104;-4.162;2023-04-29T01:52:18;3.60;;;3.50;;
8568;SDS011;4322;51.104;-4.162;2023-04-29T01:54:47;3.73;;;3.63;;
8568;SDS011;4322;51.104;-4.162;2023-04-29T01:57:15;3.53;;;3.43;;
8568;SDS011;4322;51.104;-4.162;2023-04-29T01:59:42;3.80;;;3.70;;
8568;SDS011;4322;51.104;-4.162;2023-04-29T02:02:10;3.60;;;3.50;;
8568;SDS011;4322;51.104;-4.162;2023-04-29T02:04:40;3.57;;;3.47;;
8568;SDS011;4322;51.104;-4.162;2023-04-29T02:07:09;3.70;;;3.60;;
8568;SDS011;4322;51.104;-4.162;2023-04-29T02:09:36;3.90;;;3.80;;
8568;SDS011;4322;51.104;-4.162;2023-04-29T02:12:05;3.43;;;3.33;;
8568;SDS011;4322;51.104;-4.162;2023-04-29T02:14:33;3.43;;;3.33;;
8568;SDS011;4322;51.104;-4.162;2023-04-29T02:17:03;3.27;;;3.17;;
8568;SDS011;4322;51.104;-4.162;2023-04-29T02:19:31;3.70;;;3.60;;
8568;SDS011;4322;51.104;-4.162;2023-04-29T02:21:59;3.70;;;3.60;;
8568;SDS011;4322;51.104;-4.162;2023-04-29T02:24:26;3.53;;;3.43;;
8568;SDS011;4322;51.104;-4.162;2023-04-29T02:26:54;3.50;;;3.40;;
8568;SDS011;4322;51.104;-4.162;2023-04-29T02:29:29;3.43;;;3.33;;
8568;SDS011;4322;51.104;-4.162;2023-04-29T02:31:57;3.60;;;3.50;;
8568;SDS011;4322;51.104;-4.162;2023-04-29T02:34:25;4.27;;;4.07;;
8568;SDS011;4322;51.104;-4.162;2023-04-29T02:36:53;3.90;;;3.80;;
8568;SDS011;4322;51.104;-4.162;2023-04-29T02:39:20;3.47;;;3.37;;
8568;SDS011;4322;51.104;-4.162;2023-04-29T02:41:48;3.63;;;3.53;;
8568;SDS011;4322;51.104;-4.162;2023-04-29T02:44:16;3.67;;;3.57;;
8568;SDS011;4322;51.104;-4.162;2023-04-29T02:46:45;3.30;;;3.20;;
8568;SDS011;4322;51.104;-4.162;2023-04-29T02:49:13;3.70;;;3.60;;
8568;SDS011;4322;51.104;-4.162;2023-04-29T02:51:41;3.00;;;2.90;;
8568;SDS011;4322;51.104;-4.162;2023-04-29T02:54:08;3.60;;;3.50;;
8568;SDS011;4322;51.104;-4.162;2023-04-29T02:56:37;3.70;;;3.60;;
8568;SDS011;4322;51.104;-4.162;2023-04-29T02:59:04;3.47;;;3.37;;
8568;SDS011;4322;51.104;-4.162;2023-04-29T03:01:32;3.67;;;3.57;;
8568;SDS011;4322;51.104;-4.162;2023-04-29T03:04:01;3.63;;;3.53;;
8568;SDS011;4322;51.104;-4.162;2023-04-29T03:06:29;3.70;;;3.60;;
8568;SDS011;4322;51.104;-4.162;2023-04-29T03:08:57;3.03;;;2.93;;
8568;SDS011;4322;51.104;-4.162;2023-04-29T03:11:25;3.37;;;3.27;;
8568;SDS011;4322;51.104;-4.162;2023-04-29T03:13:53;3.60;;;3.50;;
8568;SDS011;4322;51.104;-4.162;2023-04-29T03:16:21;3.60;;;3.50;;
8568;SDS011;4322;51.104;-4.162;2023-04-29T03:18:49;3.30;;;3.20;;
8568;SDS011;4322;51.104;-4.162;2023-04-29T03:21:18;3.20;;;3.10;;
8568;SDS011;4322;51.104;-4.162;2023-04-29T03:23:46;3.30;;;3.20;;
8568;SDS011;4322;51.104;-4.162;2023-04-29T03:26:14;3.90;;;3.80;;
8568;SDS011;4322;51.104;-4.162;2023-04-29T03:28:42;3.43;;;3.33;;
8568;SDS011;4322;51.104;-4.162;2023-04-29T03:31:10;3.30;;;3.20;;
8568;SDS011;4322;51.104;-4.162;2023-04-29T03:33:38;3.10;;;3.00;;
8568;SDS011;4322;51.104;-4.162;2023-04-29T03:36:06;2.90;;;2.80;;
8568;SDS011;4322;51.104;-4.162;2023-04-29T03:38:35;3.10;;;3.00;;
8568;SDS011;4322;51.104;-4.162;2023-04-29T03:41:03;2.97;;;2.87;;
8568;SDS011;4322;51.104;-4.162;2023-04-29T03:43:31;3.30;;;3.20;;
8568;SDS011;4322;51.104;-4.162;2023-04-29T03:45:59;3.20;;;3.10;;
8568;SDS011;4322;51.104;-4.162;2023-04-29T03:48:27;3.13;;;3.03;;
8568;SDS011;4322;51.104;-4.162;2023-04-29T03:50:55;3.10;;;3.00;;
8568;SDS011;4322;51.104;-4.162;2023-04-29T03:53:22;3.00;;;2.90;;
8568;SDS011;4322;51.104;-4.162;2023-04-29T03:55:53;3.20;;;3.10;;
8568;SDS011;4322;51.104;-4.162;2023-04-29T03:58:20;3.40;;;3.30;;
8568;SDS011;4322;51.104;-4.162;2023-04-29T04:00:49;3.60;;;3.50;;
8568;SDS011;4322;51.104;-4.162;2023-04-29T04:03:17;3.63;;;3.53;;
8568;SDS011;4322;51.104;-4.162;2023-04-29T04:05:45;3.70;;;3.60;;
8568;SDS011;4322;51.104;-4.162;2023-04-29T04:08:13;4.10;;;3.90;;
8568;SDS011;4322;51.104;-4.162;2023-04-29T04:10:40;3.83;;;3.73;;
8568;SDS011;4322;51.104;-4.162;2023-04-29T04:13:09;3.87;;;3.77;;
8568;SDS011;4322;51.104;-4.162;2023-04-29T04:15:37;3.53;;;3.43;;
8568;SDS011;4322;51.104;-4.162;2023-04-29T04:18:05;4.10;;;3.90;;
8568;SDS011;4322;51.104;-4.162;2023-04-29T04:20:35;3.97;;;3.80;;
8568;SDS011;4322;51.104;-4.162;2023-04-29T04:23:03;3.70;;;3.60;;
8568;SDS011;4322;51.104;-4.162;2023-04-29T04:25:31;3.77;;;3.67;;
8568;SDS011;4322;51.104;-4.162;2023-04-29T04:27:58;4.00;;;3.87;;
8568;SDS011;4322;51.104;-4.162;2023-04-29T04:30:28;4.30;;;4.10;;
8568;SDS011;4322;51.104;-4.162;2023-04-29T04:32:55;4.03;;;3.90;;
8568;SDS011;4322;51.104;-4.162;2023-04-29T04:35:23;4.20;;;4.00;;
8568;SDS011;4322;51.104;-4.162;2023-04-29T04:37:51;3.83;;;3.73;;
8568;SDS011;4322;51.104;-4.162;2023-04-29T04:40:19;4.03;;;3.87;;
8568;SDS011;4322;51.104;-4.162;2023-04-29T04:42:47;4.17;;;3.97;;
8568;SDS011;4322;51.104;-4.162;2023-04-29T04:45:15;4.13;;;3.93;;
8568;SDS011;4322;51.104;-4.162;2023-04-29T04:47:44;4.23;;;4.03;;
8568;SDS011;4322;51.104;-4.162;2023-04-29T04:50:12;4.70;;;4.50;;
8568;SDS011;4322;51.104;-4.162;2023-04-29T04:52:39;3.90;;;3.80;;
8568;SDS011;4322;51.104;-4.162;2023-04-29T04:55:08;4.10;;;3.90;;
8568;SDS011;4322;51.104;-4.162;2023-04-29T04:57:38;3.90;;;3.80;;
8568;SDS011;4322;51.104;-4.162;2023-04-29T05:00:06;4.20;;;4.00;;
8568;SDS011;4322;51.104;-4.162;2023-04-29T05:02:34;4.30;;;4.10;;
8568;SDS011;4322;51.104;-4.162;2023-04-29T05:05:04;4.63;;;4.43;;
8568;SDS011;4322;51.104;-4.162;2023-04-29T05:07:31;3.53;;;3.43;;
8568;SDS011;4322;51.104;-4.162;2023-04-29T05:10:01;3.73;;;3.63;;
8568;SDS011;4322;51.104;-4.162;2023-04-29T05:12:29;3.67;;;3.57;;
8568;SDS011;4322;51.104;-4.162;2023-04-29T05:14:57;3.50;;;3.40;;
8568;SDS011;4322;51.104;-4.162;2023-04-29T05:17:25;3.60;;;3.50;;
8568;SDS011;4322;51.104;-4.162;2023-04-29T05:19:53;3.63;;;3.53;;
8568;SDS011;4322;51.104;-4.162;2023-04-29T05:22:22;3.83;;;3.73;;
8568;SDS011;4322;51.104;-4.162;2023-04-29T05:24:50;3.70;;;3.60;;
8568;SDS011;4322;51.104;-4.162;2023-04-29T05:27:19;3.70;;;3.60;;
8568;SDS011;4322;51.104;-4.162;2023-04-29T05:29:47;3.60;;;3.50;;
8568;SDS011;4322;51.104;-4.162;2023-04-29T05:32:15;3.80;;;3.70;;
8568;SDS011;4322;51.104;-4.162;2023-04-29T05:34:43;3.77;;;3.67;;
8568;SDS011;4322;51.104;-4.162;2023-04-29T05:37:11;3.60;;;3.50;;
8568;SDS011;4322;51.104;-4.162;2023-04-29T05:39:40;3.20;;;3.10;;
8568;SDS011;4322;51.104;-4.162;2023-04-29T05:42:08;3.60;;;3.50;;
8568;SDS011;4322;51.104;-4.162;2023-04-29T05:44:36;3.77;;;3.67;;
8568;SDS011;4322;51.104;-4.162;2023-04-29T05:47:04;3.50;;;3.40;;
8568;SDS011;4322;51.104;-4.162;2023-04-29T05:49:32;3.30;;;3.20;;
8568;SDS011;4322;51.104;-4.162;2023-04-29T05:52:00;3.60;;;3.50;;
8568;SDS011;4322;51.104;-4.162;2023-04-29T05:54:31;3.50;;;3.40;;
8568;SDS011;4322;51.104;-4.162;2023-04-29T05:57:00;3.60;;;3.50;;
8568;SDS011;4322;51.104;-4.162;2023-04-29T05:59:28;3.40;;;3.30;;
8568;SDS011;4322;51.104;-4.162;2023-04-29T06:01:57;3.47;;;3.37;;
8568;SDS011;4322;51.104;-4.162;2023-04-29T06:04:25;3.63;;;3.53;;
8568;SDS011;4322;51.104;-4.162;2023-04-29T06:06:54;3.40;;;3.30;;
8568;SDS011;4322;51.104;-4.162;2023-04-29T06:09:23;3.47;;;3.37;;
8568;SDS011;4322;51.104;-4.162;2023-04-29T06:11:53;3.57;;;3.47;;
8568;SDS011;4322;51.104;-4.162;2023-04-29T06:14:23;3.60;;;3.50;;
8568;SDS011;4322;51.104;-4.162;2023-04-29T06:16:50;3.77;;;3.67;;
8568;SDS011;4322;51.104;-4.162;2023-04-29T06:19:19;3.57;;;3.47;;
8568;SDS011;4322;51.104;-4.162;2023-04-29T06:21:46;3.40;;;3.30;;
8568;SDS011;4322;51.104;-4.162;2023-04-29T06:24:14;3.23;;;3.13;;
8568;SDS011;4322;51.104;-4.162;2023-04-29T06:26:42;3.23;;;3.13;;
8568;SDS011;4322;51.104;-4.162;2023-04-29T06:29:10;3.00;;;2.90;;
8568;SDS011;4322;51.104;-4.162;2023-04-29T06:31:39;2.70;;;2.60;;
8568;SDS011;4322;51.104;-4.162;2023-04-29T06:34:07;2.90;;;2.80;;
8568;SDS011;4322;51.104;-4.162;2023-04-29T06:36:35;2.90;;;2.80;;
8568;SDS011;4322;51.104;-4.162;2023-04-29T06:39:02;2.80;;;2.70;;
8568;SDS011;4322;51.104;-4.162;2023-04-29T06:41:30;2.63;;;2.53;;
8568;SDS011;4322;51.104;-4.162;2023-04-29T06:43:59;3.00;;;2.90;;
8568;SDS011;4322;51.104;-4.162;2023-04-29T06:46:27;2.90;;;2.80;;
8568;SDS011;4322;51.104;-4.162;2023-04-29T06:48:56;3.00;;;2.90;;
8568;SDS011;4322;51.104;-4.162;2023-04-29T06:51:24;2.77;;;2.67;;
8568;SDS011;4322;51.104;-4.162;2023-04-29T06:53:53;2.60;;;2.50;;
8568;SDS011;4322;51.104;-4.162;2023-04-29T06:56:21;2.80;;;2.70;;
8568;SDS011;4322;51.104;-4.162;2023-04-29T06:58:49;2.93;;;2.83;;
8568;SDS011;4322;51.104;-4.162;2023-04-29T07:01:16;2.90;;;2.80;;
8568;SDS011;4322;51.104;-4.162;2023-04-29T07:03:44;2.90;;;2.80;;
8568;SDS011;4322;51.104;-4.162;2023-04-29T07:06:14;3.10;;;3.00;;
8568;SDS011;4322;51.104;-4.162;2023-04-29T07:08:41;2.93;;;2.83;;
8568;SDS011;4322;51.104;-4.162;2023-04-29T07:11:09;2.53;;;2.43;;
8568;SDS011;4322;51.104;-4.162;2023-04-29T07:13:37;3.10;;;3.00;;
8568;SDS011;4322;51.104;-4.162;2023-04-29T07:16:07;3.03;;;2.93;;
8568;SDS011;4322;51.104;-4.162;2023-04-29T07:18:45;3.17;;;3.07;;
8568;SDS011;4322;51.104;-4.162;2023-04-29T07:21:14;2.77;;;2.67;;
8568;SDS011;4322;51.104;-4.162;2023-04-29T07:23:42;2.60;;;2.50;;
8568;SDS011;4322;51.104;-4.162;2023-04-29T07:26:10;2.93;;;2.83;;
8568;SDS011;4322;51.104;-4.162;2023-04-29T07:28:38;2.73;;;2.63;;
8568;SDS011;4322;51.104;-4.162;2023-04-29T07:31:06;2.60;;;2.50;;
8568;SDS011;4322;51.104;-4.162;2023-04-29T07:33:34;2.77;;;2.67;;
8568;SDS011;4322;51.104;-4.162;2023-04-29T07:36:02;2.67;;;2.57;;
8568;SDS011;4322;51.104;-4.162;2023-04-29T07:38:31;2.83;;;2.73;;
8568;SDS011;4322;51.104;-4.162;2023-04-29T07:40:59;2.80;;;2.70;;
8568;SDS011;4322;51.104;-4.162;2023-04-29T07:43:28;2.70;;;2.60;;
8568;SDS011;4322;51.104;-4.162;2023-04-29T07:45:56;3.00;;;2.90;;
8568;SDS011;4322;51.104;-4.162;2023-04-29T07:48:24;3.10;;;3.00;;
8568;SDS011;4322;51.104;-4.162;2023-04-29T07:50:52;2.63;;;2.53;;
8568;SDS011;4322;51.104;-4.162;2023-04-29T07:53:20;3.00;;;2.90;;
8568;SDS011;4322;51.104;-4.162;2023-04-29T07:55:49;2.40;;;2.30;;
8568;SDS011;4322;51.104;-4.162;2023-04-29T07:58:17;2.70;;;2.60;;
8568;SDS011;4322;51.104;-4.162;2023-04-29T08:00:44;2.10;;;2.10;;
8568;SDS011;4322;51.104;-4.162;2023-04-29T08:03:12;2.10;;;2.10;;
8568;SDS011;4322;51.104;-4.162;2023-04-29T08:05:40;2.00;;;2.00;;
8568;SDS011;4322;51.104;-4.162;2023-04-29T08:08:10;2.00;;;2.00;;
8568;SDS011;4322;51.104;-4.162;2023-04-29T08:10:38;2.10;;;2.10;;
8568;SDS011;4322;51.104;-4.162;2023-04-29T08:13:09;2.50;;;2.40;;
8568;SDS011;4322;51.104;-4.162;2023-04-29T08:15:37;1.93;;;1.93;;
8568;SDS011;4322;51.104;-4.162;2023-04-29T08:18:05;2.10;;;2.10;;
8568;SDS011;4322;51.104;-4.162;2023-04-29T08:20:33;1.93;;;1.93;;
8568;SDS011;4322;51.104;-4.162;2023-04-29T08:23:01;1.90;;;1.90;;
8568;SDS011;4322;51.104;-4.162;2023-04-29T08:25:29;1.80;;;1.80;;
8568;SDS011;4322;51.104;-4.162;2023-04-29T08:27:57;1.80;;;1.80;;
8568;SDS011;4322;51.104;-4.162;2023-04-29T08:30:26;2.00;;;2.00;;
8568;SDS011;4322;51.104;-4.162;2023-04-29T08:32:54;2.20;;;2.13;;
8568;SDS011;4322;51.104;-4.162;2023-04-29T08:35:21;2.40;;;2.30;;
8568;SDS011;4322;51.104;-4.162;2023-04-29T08:37:49;2.00;;;2.00;;
8568;SDS011;4322;51.104;-4.162;2023-04-29T08:40:19;1.83;;;1.83;;
8568;SDS011;4322;51.104;-4.162;2023-04-29T08:42:47;1.80;;;1.80;;
8568;SDS011;4322;51.104;-4.162;2023-04-29T08:45:16;1.60;;;1.60;;
8568;SDS011;4322;51.104;-4.162;2023-04-29T08:47:47;1.70;;;1.70;;
8568;SDS011;4322;51.104;-4.162;2023-04-29T08:50:16;1.77;;;1.77;;
8568;SDS011;4322;51.104;-4.162;2023-04-29T08:52:44;1.80;;;1.80;;
8568;SDS011;4322;51.104;-4.162;2023-04-29T08:55:12;1.80;;;1.80;;
8568;SDS011;4322;51.104;-4.162;2023-04-29T08:57:41;1.70;;;1.70;;
8568;SDS011;4322;51.104;-4.162;2023-04-29T09:00:09;1.70;;;1.70;;
8568;SDS011;4322;51.104;-4.162;2023-04-29T09:02:40;2.00;;;2.00;;
8568;SDS011;4322;51.104;-4.162;2023-04-29T09:05:11;2.30;;;2.20;;
8568;SDS011;4322;51.104;-4.162;2023-04-29T09:07:39;2.10;;;2.10;;
8568;SDS011;4322;51.104;-4.162;2023-04-29T09:10:07;1.87;;;1.87;;
8568;SDS011;4322;51.104;-4.162;2023-04-29T09:12:36;2.40;;;2.30;;
8568;SDS011;4322;51.104;-4.162;2023-04-29T09:15:04;2.30;;;2.20;;
8568;SDS011;4322;51.104;-4.162;2023-04-29T09:17:39;2.10;;;2.10;;
8568;SDS011;4322;51.104;-4.162;2023-04-29T09:20:27;2.00;;;2.00;;
8568;SDS011;4322;51.104;-4.162;2023-04-29T09:22:56;2.40;;;2.30;;
8568;SDS011;4322;51.104;-4.162;2023-04-29T09:25:24;2.50;;;2.40;;
8568;SDS011;4322;51.104;-4.162;2023-04-29T09:27:53;2.60;;;2.50;;
8568;SDS011;4322;51.104;-4.162;2023-04-29T09:30:21;2.50;;;2.40;;
8568;SDS011;4322;51.104;-4.162;2023-04-29T09:33:05;2.63;;;2.53;;
8568;SDS011;4322;51.104;-4.162;2023-04-29T09:35:34;2.53;;;2.43;;
8568;SDS011;4322;51.104;-4.162;2023-04-29T09:38:09;2.80;;;2.70;;
8568;SDS011;4322;51.104;-4.162;2023-04-29T09:40:38;2.70;;;2.60;;
8568;SDS011;4322;51.104;-4.162;2023-04-29T09:43:24;2.70;;;2.60;;
8568;SDS011;4322;51.104;-4.162;2023-04-29T09:45:52;2.93;;;2.83;;
8568;SDS011;4322;51.104;-4.162;2023-04-29T09:48:20;3.20;;;3.10;;
8568;SDS011;4322;51.104;-4.162;2023-04-29T09:50:59;3.00;;;2.90;;
8568;SDS011;4322;51.104;-4.162;2023-04-29T09:53:28;3.70;;;3.60;;
8568;SDS011;4322;51.104;-4.162;2023-04-29T09:55:58;3.40;;;3.30;;
8568;SDS011;4322;51.104;-4.162;2023-04-29T09:58:29;3.60;;;3.50;;
8568;SDS011;4322;51.104;-4.162;2023-04-29T10:00:59;3.67;;;3.57;;
8568;SDS011;4322;51.104;-4.162;2023-04-29T10:03:30;4.20;;;4.00;;
8568;SDS011;4322;51.104;-4.162;2023-04-29T10:06:00;3.70;;;3.60;;
8568;SDS011;4322;51.104;-4.162;2023-04-29T10:08:29;3.83;;;3.73;;
8568;SDS011;4322;51.104;-4.162;2023-04-29T10:10:58;3.30;;;3.20;;
8568;SDS011;4322;51.104;-4.162;2023-04-29T10:13:26;3.30;;;3.20;;
8568;SDS011;4322;51.104;-4.162;2023-04-29T10:15:56;3.90;;;3.80;;
8568;SDS011;4322;51.104;-4.162;2023-04-29T10:18:25;4.10;;;3.90;;
8568;SDS011;4322;51.104;-4.162;2023-04-29T10:21:00;3.73;;;3.63;;
8568;SDS011;4322;51.104;-4.162;2023-04-29T10:23:28;3.87;;;3.77;;
8568;SDS011;4322;51.104;-4.162;2023-04-29T10:25:57;3.87;;;3.77;;
8568;SDS011;4322;51.104;-4.162;2023-04-29T10:28:25;4.07;;;3.87;;
8568;SDS011;4322;51.104;-4.162;2023-04-29T10:30:54;3.97;;;3.83;;
8568;SDS011;4322;51.104;-4.162;2023-04-29T10:33:22;4.47;;;4.27;;
8568;SDS011;4322;51.104;-4.162;2023-04-29T10:35:52;4.40;;;4.20;;
8568;SDS011;4322;51.104;-4.162;2023-04-29T10:38:24;4.30;;;4.10;;
8568;SDS011;4322;51.104;-4.162;2023-04-29T10:40:54;4.20;;;4.00;;
8568;SDS011;4322;51.104;-4.162;2023-04-29T10:43:24;4.23;;;4.03;;
8568;SDS011;4322;51.104;-4.162;2023-04-29T10:48:35;4.60;;;4.40;;
8568;SDS011;4322;51.104;-4.162;2023-04-29T10:51:03;4.43;;;4.23;;
8568;SDS011;4322;51.104;-4.162;2023-04-29T10:53:32;4.67;;;4.47;;
8568;SDS011;4322;51.104;-4.162;2023-04-29T10:56:05;4.47;;;4.27;;
8568;SDS011;4322;51.104;-4.162;2023-04-29T10:58:35;4.67;;;4.47;;
8568;SDS011;4322;51.104;-4.162;2023-04-29T11:01:02;4.60;;;4.40;;
8568;SDS011;4322;51.104;-4.162;2023-04-29T11:03:50;4.50;;;4.30;;
8568;SDS011;4322;51.104;-4.162;2023-04-29T11:06:21;4.80;;;4.60;;
8568;SDS011;4322;51.104;-4.162;2023-04-29T11:09:01;4.23;;;4.03;;
8568;SDS011;4322;51.104;-4.162;2023-04-29T11:14:20;5.00;;;4.80;;
8568;SDS011;4322;51.104;-4.162;2023-04-29T11:16:50;4.63;;;4.43;;
8568;SDS011;4322;51.104;-4.162;2023-04-29T11:19:18;4.47;;;4.27;;
8568;SDS011;4322;51.104;-4.162;2023-04-29T11:21:46;4.47;;;4.27;;
8568;SDS011;4322;51.104;-4.162;2023-04-29T11:24:16;4.90;;;4.70;;
8568;SDS011;4322;51.104;-4.162;2023-04-29T11:26:43;4.50;;;4.30;;
8568;SDS011;4322;51.104;-4.162;2023-04-29T11:29:11;4.20;;;4.00;;
8568;SDS011;4322;51.104;-4.162;2023-04-29T11:31:39;4.80;;;4.60;;
8568;SDS011;4322;51.104;-4.162;2023-04-29T11:34:07;4.80;;;4.60;;
8568;SDS011;4322;51.104;-4.162;2023-04-29T11:36:38;4.30;;;4.10;;
8568;SDS011;4322;51.104;-4.162;2023-04-29T11:39:06;4.20;;;4.00;;
8568;SDS011;4322;51.104;-4.162;2023-04-29T11:41:35;4.70;;;4.50;;
8568;SDS011;4322;51.104;-4.162;2023-04-29T11:44:04;4.40;;;4.20;;
8568;SDS011;4322;51.104;-4.162;2023-04-29T11:46:33;4.43;;;4.23;;
8568;SDS011;4322;51.104;-4.162;2023-04-29T11:49:01;4.70;;;4.50;;
8568;SDS011;4322;51.104;-4.162;2023-04-29T11:51:28;4.90;;;4.70;;
8568;SDS011;4322;51.104;-4.162;2023-04-29T11:53:58;4.60;;;4.40;;
8568;SDS011;4322;51.104;-4.162;2023-04-29T11:56:25;5.20;;;5.00;;
8568;SDS011;4322;51.104;-4.162;2023-04-29T11:58:55;5.00;;;4.80;;
8568;SDS011;4322;51.104;-4.162;2023-04-29T12:01:24;4.67;;;4.47;;
8568;SDS011;4322;51.104;-4.162;2023-04-29T12:03:56;4.30;;;4.10;;
8568;SDS011;4322;51.104;-4.162;2023-04-29T12:06:26;4.60;;;4.40;;
8568;SDS011;4322;51.104;-4.162;2023-04-29T12:08:53;4.43;;;4.23;;
8568;SDS011;4322;51.104;-4.162;2023-04-29T12:11:21;4.10;;;3.90;;
8568;SDS011;4322;51.104;-4.162;2023-04-29T12:13:50;4.30;;;4.10;;
8568;SDS011;4322;51.104;-4.162;2023-04-29T12:16:20;4.20;;;4.00;;
8568;SDS011;4322;51.104;-4.162;2023-04-29T12:18:49;4.23;;;4.03;;
8568;SDS011;4322;51.104;-4.162;2023-04-29T12:21:17;4.70;;;4.50;;
8568;SDS011;4322;51.104;-4.162;2023-04-29T12:23:45;4.60;;;4.40;;
8568;SDS011;4322;51.104;-4.162;2023-04-29T12:26:12;4.60;;;4.40;;
8568;SDS011;4322;51.104;-4.162;2023-04-29T12:28:41;3.37;;;3.27;;
8568;SDS011;4322;51.104;-4.162;2023-04-29T12:31:09;2.80;;;2.70;;
8568;SDS011;4322;51.104;-4.162;2023-04-29T12:33:40;2.70;;;2.60;;
8568;SDS011;4322;51.104;-4.162;2023-04-29T12:36:14;2.50;;;2.40;;
8568;SDS011;4322;51.104;-4.162;2023-04-29T12:38:46;2.10;;;2.10;;
8568;SDS011;4322;51.104;-4.162;2023-04-29T12:41:14;2.40;;;2.30;;
8568;SDS011;4322;51.104;-4.162;2023-04-29T12:43:42;2.50;;;2.40;;
8568;SDS011;4322;51.104;-4.162;2023-04-29T12:46:10;2.40;;;2.30;;
8568;SDS011;4322;51.104;-4.162;2023-04-29T12:48:40;2.00;;;2.00;;
8568;SDS011;4322;51.104;-4.162;2023-04-29T12:51:09;2.10;;;2.10;;
8568;SDS011;4322;51.104;-4.162;2023-04-29T12:53:37;2.40;;;2.30;;
8568;SDS011;4322;51.104;-4.162;2023-04-29T12:56:05;2.40;;;2.30;;
8568;SDS011;4322;51.104;-4.162;2023-04-29T12:58:33;2.60;;;2.50;;
8568;SDS011;4322;51.104;-4.162;2023-04-29T13:01:02;2.47;;;2.37;;
8568;SDS011;4322;51.104;-4.162;2023-04-29T13:03:29;2.30;;;2.20;;
8568;SDS011;4322;51.104;-4.162;2023-04-29T13:06:00;2.60;;;2.50;;
8568;SDS011;4322;51.104;-4.162;2023-04-29T13:08:27;2.40;;;2.30;;
8568;SDS011;4322;51.104;-4.162;2023-04-29T13:10:56;2.30;;;2.20;;
8568;SDS011;4322;51.104;-4.162;2023-04-29T13:13:23;2.17;;;2.13;;
8568;SDS011;4322;51.104;-4.162;2023-04-29T13:15:52;2.00;;;2.00;;
8568;SDS011;4322;51.104;-4.162;2023-04-29T13:18:20;2.40;;;2.30;;
8568;SDS011;4322;51.104;-4.162;2023-04-29T13:20:48;2.00;;;2.00;;
8568;SDS011;4322;51.104;-4.162;2023-04-29T13:23:19;2.40;;;2.30;;
8568;SDS011;4322;51.104;-4.162;2023-04-29T13:25:48;2.23;;;2.17;;
8568;SDS011;4322;51.104;-4.162;2023-04-29T13:28:16;2.30;;;2.20;;
8568;SDS011;4322;51.104;-4.162;2023-04-29T13:30:44;2.00;;;2.00;;
8568;SDS011;4322;51.104;-4.162;2023-04-29T13:33:12;2.30;;;2.20;;
8568;SDS011;4322;51.104;-4.162;2023-04-29T13:35:40;2.03;;;2.03;;
8568;SDS011;4322;51.104;-4.162;2023-04-29T13:38:07;2.10;;;2.10;;
8568;SDS011;4322;51.104;-4.162;2023-04-29T13:40:37;2.07;;;2.07;;
8568;SDS011;4322;51.104;-4.162;2023-04-29T13:43:11;2.00;;;2.00;;
8568;SDS011;4322;51.104;-4.162;2023-04-29T13:45:50;2.10;;;2.10;;
8568;SDS011;4322;51.104;-4.162;2023-04-29T13:48:18;2.30;;;2.20;;
8568;SDS011;4322;51.104;-4.162;2023-04-29T13:50:51;2.00;;;2.00;;
8568;SDS011;4322;51.104;-4.162;2023-04-29T13:53:21;2.10;;;2.10;;
8568;SDS011;4322;51.104;-4.162;2023-04-29T13:56:10;2.10;;;2.10;;
8568;SDS011;4322;51.104;-4.162;2023-04-29T13:58:41;2.40;;;2.30;;
8568;SDS011;4322;51.104;-4.162;2023-04-29T14:01:12;2.00;;;2.00;;
8568;SDS011;4322;51.104;-4.162;2023-04-29T14:04:00;2.00;;;2.00;;
8568;SDS011;4322;51.104;-4.162;2023-04-29T14:06:28;1.70;;;1.70;;
8568;SDS011;4322;51.104;-4.162;2023-04-29T14:08:57;1.40;;;1.40;;
8568;SDS011;4322;51.104;-4.162;2023-04-29T14:11:30;1.30;;;1.30;;
8568;SDS011;4322;51.104;-4.162;2023-04-29T14:14:02;1.50;;;1.50;;
8568;SDS011;4322;51.104;-4.162;2023-04-29T14:16:29;1.67;;;1.67;;
8568;SDS011;4322;51.104;-4.162;2023-04-29T14:18:58;1.30;;;1.30;;
8568;SDS011;4322;51.104;-4.162;2023-04-29T14:21:29;1.47;;;1.47;;
8568;SDS011;4322;51.104;-4.162;2023-04-29T14:23:58;1.50;;;1.50;;
8568;SDS011;4322;51.104;-4.162;2023-04-29T14:26:27;1.40;;;1.40;;
8568;SDS011;4322;51.104;-4.162;2023-04-29T14:28:57;1.37;;;1.37;;
8568;SDS011;4322;51.104;-4.162;2023-04-29T14:31:25;1.40;;;1.40;;
8568;SDS011;4322;51.104;-4.162;2023-04-29T14:33:54;1.40;;;1.40;;
8568;SDS011;4322;51.104;-4.162;2023-04-29T14:36:22;1.50;;;1.50;;
8568;SDS011;4322;51.104;-4.162;2023-04-29T14:38:50;1.60;;;1.60;;
8568;SDS011;4322;51.104;-4.162;2023-04-29T14:41:18;1.60;;;1.60;;
8568;SDS011;4322;51.104;-4.162;2023-04-29T14:43:47;1.60;;;1.60;;
8568;SDS011;4322;51.104;-4.162;2023-04-29T14:46:16;1.80;;;1.80;;
8568;SDS011;4322;51.104;-4.162;2023-04-29T14:48:44;1.80;;;1.80;;
8568;SDS011;4322;51.104;-4.162;2023-04-29T14:51:12;1.63;;;1.63;;
8568;SDS011;4322;51.104;-4.162;2023-04-29T14:53:40;1.80;;;1.80;;
8568;SDS011;4322;51.104;-4.162;2023-04-29T14:56:08;1.70;;;1.70;;
8568;SDS011;4322;51.104;-4.162;2023-04-29T14:58:36;1.57;;;1.57;;
8568;SDS011;4322;51.104;-4.162;2023-04-29T15:01:04;1.70;;;1.70;;
8568;SDS011;4322;51.104;-4.162;2023-04-29T15:03:33;1.80;;;1.80;;
8568;SDS011;4322;51.104;-4.162;2023-04-29T15:06:09;1.60;;;1.60;;
8568;SDS011;4322;51.104;-4.162;2023-04-29T15:08:37;1.90;;;1.90;;
8568;SDS011;4322;51.104;-4.162;2023-04-29T15:11:05;1.70;;;1.70;;
8568;SDS011;4322;51.104;-4.162;2023-04-29T15:13:33;1.60;;;1.60;;
8568;SDS011;4322;51.104;-4.162;2023-04-29T15:16:00;1.60;;;1.60;;